Time;durP1;ratioP1;P1;durP2;ratioP2;P2;SDS_P1;SDS_P2;PMS_P1;PMS_P2;Temp;Humidity;BMP_temperature;BMP_pressure;BME280_temperature;BME280_humidity;BME280_pressure;Samples;Min_cycle;Max_cycle;Signal;HPM_P1;HPM_P2
2022/12/27 00:01:51;;;;;;;;;;;17.80;45.50;;;;;;4922227;28;19930;-51
2022/12/27 00:04:17;;;;;;;;;;;17.80;45.00;;;;;;4992072;28;20092;-51
2022/12/27 00:06:42;;;;;;;;;;;17.70;45.40;;;;;;4953712;28;19992;-51
2022/12/27 00:09:07;;;;;;;;;;;17.70;46.00;;;;;;4950533;29;19958;-51
2022/12/27 00:11:33;;;;;;;;;;;17.70;46.10;;;;;;4948907;28;19915;-51
2022/12/27 00:13:59;;;;;;;;;;;17.60;45.50;;;;;;4950180;28;19919;-51
2022/12/27 00:16:24;;;;;;;;;;;17.60;44.90;;;;;;4949843;29;20446;-51
2022/12/27 00:18:51;;;;;;;;;;;17.60;44.90;;;;;;4958184;28;19921;-51
2022/12/27 00:21:16;;;;;;;;;;;17.50;45.10;;;;;;4953811;28;19911;-51
2022/12/27 00:23:43;;;;;;;;;;;17.50;44.80;;;;;;4953525;28;19915;-51
2022/12/27 00:26:10;;;;;;;;;;;17.50;44.90;;;;;;4953326;29;19961;-50
2022/12/27 00:28:35;;;;;;;;;;;17.50;45.10;;;;;;4953214;28;19915;-52
2022/12/27 00:31:01;;;;;;;;;;;17.40;45.40;;;;;;4954109;28;19914;-52
2022/12/27 00:33:27;;;;;;;;;;;17.40;45.50;;;;;;4953567;28;19919;-52
2022/12/27 00:35:52;;;;;;;;;;;17.40;45.20;;;;;;4953330;28;20393;-52
2022/12/27 00:38:18;;;;;;;;;;;17.30;45.80;;;;;;4953388;28;19915;-52
2022/12/27 00:40:43;;;;;;;;;;;17.30;45.20;;;;;;4953169;28;19919;-52
2022/12/27 00:43:09;;;;;;;;;;;17.30;45.50;;;;;;4950997;28;19923;-52
2022/12/27 00:45:34;;;;;;;;;;;17.30;45.20;;;;;;4950457;29;20056;-52
2022/12/27 00:48:00;;;;;;;;;;;17.20;45.60;;;;;;4953427;28;19914;-52
2022/12/27 00:50:25;;;;;;;;;;;17.20;45.30;;;;;;5033521;28;19914;-52
2022/12/27 00:52:51;;;;;;;;;;;17.20;45.40;;;;;;5030085;28;20277;-52
2022/12/27 00:55:16;;;;;;;;;;;17.20;45.50;;;;;;4952418;28;19918;-52
2022/12/27 00:57:41;;;;;;;;;;;17.10;45.40;;;;;;4952458;29;19967;-52
2022/12/27 01:00:07;;;;;;;;;;;17.10;45.60;;;;;;4953253;29;19910;-51
2022/12/27 01:02:33;;;;;;;;;;;17.10;45.70;;;;;;4952892;28;19914;-52
2022/12/27 01:04:58;;;;;;;;;;;17.00;45.90;;;;;;4966553;28;20035;-51
2022/12/27 01:07:24;;;;;;;;;;;17.00;45.80;;;;;;4951756;28;19923;-50
2022/12/27 01:09:49;;;;;;;;;;;17.00;45.70;;;;;;4952392;29;19982;-53
2022/12/27 01:12:14;;;;;;;;;;;17.00;46.00;;;;;;4952332;28;19914;-51
2022/12/27 01:14:40;;;;;;;;;;;17.00;45.90;;;;;;4951724;28;20400;-51
2022/12/27 01:17:05;;;;;;;;;;;16.90;45.80;;;;;;4952795;28;20294;-52
2022/12/27 01:19:31;;;;;;;;;;;16.90;45.90;;;;;;4952456;29;19914;-50
2022/12/27 01:21:56;;;;;;;;;;;16.90;46.00;;;;;;4953154;28;19972;-52
2022/12/27 01:24:22;;;;;;;;;;;16.80;46.00;;;;;;4952306;28;19950;-52
2022/12/27 01:26:47;;;;;;;;;;;16.80;46.00;;;;;;4952482;28;19914;-51
2022/12/27 01:29:13;;;;;;;;;;;16.80;46.10;;;;;;4951686;28;19911;-51
2022/12/27 01:31:38;;;;;;;;;;;16.80;45.90;;;;;;4945204;29;19949;-51
2022/12/27 01:34:04;;;;;;;;;;;16.80;46.00;;;;;;4933868;28;19921;-51
2022/12/27 01:36:30;;;;;;;;;;;16.80;46.00;;;;;;4951350;28;19918;-51
2022/12/27 01:38:55;;;;;;;;;;;16.70;46.00;;;;;;4953041;28;19998;-52
2022/12/27 01:44:26;;;;;;;;;;;16.70;45.80;;;;;;4951792;28;20066;-51
2022/12/27 01:46:51;;;;;;;;;;;16.70;45.80;;;;;;4951721;28;19959;-51
2022/12/27 01:49:17;;;;;;;;;;;16.70;46.00;;;;;;4952332;28;19915;-52
2022/12/27 01:51:42;;;;;;;;;;;16.60;45.90;;;;;;4980381;28;19920;-51
2022/12/27 01:54:07;;;;;;;;;;;16.60;45.90;;;;;;4955465;28;19930;-51
2022/12/27 01:56:33;;;;;;;;;;;16.60;45.90;;;;;;4951231;28;19925;-51
2022/12/27 01:58:59;;;;;;;;;;;16.60;46.20;;;;;;4951904;28;19914;-51
2022/12/27 02:01:38;;;;;;;;;;;16.60;46.10;;;;;;4951153;28;19915;-51
2022/12/27 02:04:05;;;;;;;;;;;16.50;46.00;;;;;;4951432;28;19914;-52
2022/12/27 02:06:30;;;;;;;;;;;16.60;46.10;;;;;;4937828;28;19919;-51
2022/12/27 02:09:04;;;;;;;;;;;16.60;46.10;;;;;;4950825;28;19945;-52
2022/12/27 02:11:49;;;;;;;;;;;16.50;46.10;;;;;;4951827;28;19918;-51
2022/12/27 02:14:17;;;;;;;;;;;16.60;45.70;;;;;;4935777;28;19980;-52
2022/12/27 02:16:42;;;;;;;;;;;16.70;45.50;;;;;;4951929;29;19930;-52
2022/12/27 02:19:11;;;;;;;;;;;16.80;45.30;;;;;;4951480;29;20051;-51
2022/12/27 02:22:06;;;;;;;;;;;17.00;45.10;;;;;;4952076;28;19980;-51
2022/12/27 02:24:37;;;;;;;;;;;17.20;45.20;;;;;;4955784;28;20294;-51
2022/12/27 02:27:03;;;;;;;;;;;17.40;44.50;;;;;;4950573;28;19930;-51
2022/12/27 02:29:29;;;;;;;;;;;17.80;44.00;;;;;;4955286;28;20715;-53
2022/12/27 02:31:56;;;;;;;;;;;18.10;43.40;;;;;;4951009;28;19988;-51
2022/12/27 02:34:23;;;;;;;;;;;18.70;42.70;;;;;;4949807;28;19917;-51
2022/12/27 02:36:49;;;;;;;;;;;19.30;41.70;;;;;;4950709;28;19918;-52
2022/12/27 02:39:14;;;;;;;;;;;19.70;40.60;;;;;;4934936;28;19919;-50
2022/12/27 02:53:04;;;;;;;;;;;20.80;38.60;;;;;;4981657;28;19925;-51
2022/12/27 02:55:41;;;;;;;;;;;20.60;39.00;;;;;;4948310;28;20004;-51
2022/12/27 02:58:13;;;;;;;;;;;20.30;39.30;;;;;;4952819;28;20126;-50
2022/12/27 03:03:44;;;;;;;;;;;20.00;39.90;;;;;;4948455;29;19921;-50
2022/12/27 03:09:06;;;;;;;;;;;19.60;40.60;;;;;;4936539;29;20032;-51
2022/12/27 03:17:08;;;;;;;;;;;19.20;41.10;;;;;;4951071;29;19929;-51
2022/12/27 03:25:28;;;;;;;;;;;19.10;41.50;;;;;;4950773;29;19972;-51
2022/12/27 03:33:46;;;;;;;;;;;19.30;41.30;;;;;;4936435;29;19998;-52
2022/12/27 03:39:06;;;;;;;;;;;19.50;40.70;;;;;;4941302;29;20022;-51
2022/12/27 03:44:24;;;;;;;;;;;19.60;40.50;;;;;;4949335;28;19925;-51
2022/12/27 03:47:08;;;;;;;;;;;19.40;40.50;;;;;;4951045;28;20370;-52
2022/12/27 03:49:39;;;;;;;;;;;19.50;40.60;;;;;;4950684;28;20424;-51
2022/12/27 03:52:10;;;;;;;;;;;19.40;40.70;;;;;;4962780;28;20009;-52
2022/12/27 03:54:36;;;;;;;;;;;19.40;40.80;;;;;;4963846;28;19918;-51
2022/12/27 03:57:05;;;;;;;;;;;19.40;40.60;;;;;;4953440;28;20337;-51
2022/12/27 03:59:31;;;;;;;;;;;19.30;40.80;;;;;;4937176;29;19921;-51
2022/12/27 04:01:56;;;;;;;;;;;19.30;40.90;;;;;;4952959;28;19926;-50
2022/12/27 04:04:22;;;;;;;;;;;19.30;41.00;;;;;;4988604;28;19957;-51
2022/12/27 04:06:47;;;;;;;;;;;19.20;41.10;;;;;;4951063;28;19930;-51
2022/12/27 04:36:54;;;;;;;;;;;19.30;40.60;;;;;;4953428;29;20022;-52
2022/12/27 04:39:19;;;;;;;;;;;19.30;40.70;;;;;;4952984;28;20375;-51
2022/12/27 04:55:27;;;;;;;;;;;20.00;39.90;;;;;;4959352;28;20386;-52
2022/12/27 04:57:52;;;;;;;;;;;19.90;39.80;;;;;;4949198;28;19926;-52
2022/12/27 05:03:12;;;;;;;;;;;19.70;40.30;;;;;;4953688;28;20387;-51
2022/12/27 05:05:38;;;;;;;;;;;19.50;40.40;;;;;;4950612;28;19918;-51
2022/12/27 05:16:16;;;;;;;;;;;19.50;40.40;;;;;;4952382;28;19929;-51
2022/12/27 05:18:41;;;;;;;;;;;19.50;40.60;;;;;;4951705;28;20284;-52
2022/12/27 05:21:07;;;;;;;;;;;19.40;40.50;;;;;;4952504;28;20334;-50
2022/12/27 05:26:17;;;;;;;;;;;19.40;40.60;;;;;;4951798;29;19965;-51
2022/12/27 05:28:43;;;;;;;;;;;19.50;40.60;;;;;;4952197;29;19915;-51
2022/12/27 05:31:08;;;;;;;;;;;19.50;40.40;;;;;;5026567;28;20521;-52
2022/12/27 05:33:34;;;;;;;;;;;19.60;40.20;;;;;;4951307;28;19949;-52
2022/12/27 05:35:59;;;;;;;;;;;19.70;40.20;;;;;;4950961;28;19973;-51
2022/12/27 05:38:25;;;;;;;;;;;19.70;40.00;;;;;;4952830;29;19950;-51
2022/12/27 05:40:50;;;;;;;;;;;19.70;40.00;;;;;;4950806;28;19915;-51
2022/12/27 05:43:16;;;;;;;;;;;19.70;40.10;;;;;;4967351;28;19914;-51
2022/12/27 05:45:41;;;;;;;;;;;19.80;40.10;;;;;;4951399;28;19940;-52
2022/12/27 05:48:07;;;;;;;;;;;19.70;40.10;;;;;;4951776;28;20016;-51
2022/12/27 05:50:32;;;;;;;;;;;19.70;40.10;;;;;;4950537;28;20335;-51
2022/12/27 05:52:57;;;;;;;;;;;19.70;40.20;;;;;;5036267;28;20474;-51
2022/12/27 05:55:23;;;;;;;;;;;19.70;40.20;;;;;;4953200;28;19977;-53
2022/12/27 05:57:48;;;;;;;;;;;19.80;40.30;;;;;;4951882;28;19958;-51
2022/12/27 06:00:14;;;;;;;;;;;19.70;40.20;;;;;;4950451;28;20401;-51
2022/12/27 06:02:40;;;;;;;;;;;19.70;40.20;;;;;;4951914;28;19925;-52
2022/12/27 06:05:06;;;;;;;;;;;19.80;40.00;;;;;;4950981;28;19914;-52
2022/12/27 06:07:33;;;;;;;;;;;19.70;40.00;;;;;;5032745;28;19926;-52
2022/12/27 06:09:58;;;;;;;;;;;19.70;40.20;;;;;;4953167;28;19918;-52
2022/12/27 06:12:24;;;;;;;;;;;19.60;40.30;;;;;;4952191;28;19914;-52
2022/12/27 06:14:49;;;;;;;;;;;19.70;40.30;;;;;;4950636;28;20305;-53
2022/12/27 06:17:15;;;;;;;;;;;19.70;40.20;;;;;;4949667;28;20282;-52
2022/12/27 06:19:40;;;;;;;;;;;19.60;40.20;;;;;;4951418;28;20393;-50
2022/12/27 06:22:06;;;;;;;;;;;19.70;40.10;;;;;;4952161;28;19917;-51
2022/12/27 06:24:31;;;;;;;;;;;19.80;39.70;;;;;;4950361;28;20394;-50
2022/12/27 06:26:56;;;;;;;;;;;19.70;39.90;;;;;;4952781;28;20409;-51
2022/12/27 06:29:22;;;;;;;;;;;19.70;40.20;;;;;;4951311;29;19910;-52
2022/12/27 06:31:47;;;;;;;;;;;19.70;39.90;;;;;;4951896;28;19926;-52
2022/12/27 06:34:13;;;;;;;;;;;19.70;39.90;;;;;;4951949;28;19914;-51
2022/12/27 06:36:38;;;;;;;;;;;19.70;39.90;;;;;;4951902;28;20481;-52
2022/12/27 06:39:04;;;;;;;;;;;19.70;40.00;;;;;;4951460;28;20405;-51
2022/12/27 06:41:29;;;;;;;;;;;19.80;39.80;;;;;;4951593;28;19949;-51
2022/12/27 06:43:55;;;;;;;;;;;19.70;40.00;;;;;;4951880;28;20371;-53
2022/12/27 06:46:23;;;;;;;;;;;19.70;40.10;;;;;;4952107;28;20013;-52
2022/12/27 06:48:48;;;;;;;;;;;19.60;40.10;;;;;;4951847;28;19910;-52
2022/12/27 06:51:14;;;;;;;;;;;19.60;40.30;;;;;;4960273;28;20041;-50
2022/12/27 06:53:40;;;;;;;;;;;19.70;40.00;;;;;;4988869;28;19929;-51
2022/12/27 06:56:06;;;;;;;;;;;19.60;40.10;;;;;;4940757;28;20417;-51
2022/12/27 06:58:31;;;;;;;;;;;19.50;40.30;;;;;;4948969;28;20394;-50
2022/12/27 07:00:57;;;;;;;;;;;19.40;40.50;;;;;;4950593;28;19919;-51
2022/12/27 07:03:22;;;;;;;;;;;19.30;40.70;;;;;;4948156;28;19922;-51
2022/12/27 07:05:48;;;;;;;;;;;19.30;40.60;;;;;;4950103;28;19929;-52
2022/12/27 07:08:13;;;;;;;;;;;19.30;40.70;;;;;;4949736;28;19915;-51
2022/12/27 07:10:38;;;;;;;;;;;19.40;40.60;;;;;;4947123;28;19922;-51
2022/12/27 07:13:04;;;;;;;;;;;19.40;40.60;;;;;;4944224;28;20377;-51
2022/12/27 07:15:29;;;;;;;;;;;19.50;40.50;;;;;;4947361;28;20045;-51
2022/12/27 07:17:55;;;;;;;;;;;19.50;40.40;;;;;;4944650;28;20383;-52
2022/12/27 07:20:20;;;;;;;;;;;19.50;40.40;;;;;;4944840;28;19921;-51
2022/12/27 07:22:46;;;;;;;;;;;19.60;40.30;;;;;;4945864;28;19918;-51
2022/12/27 07:25:11;;;;;;;;;;;19.70;40.20;;;;;;4944286;28;20424;-53
2022/12/27 07:27:36;;;;;;;;;;;19.70;39.90;;;;;;4946738;28;19918;-51
2022/12/27 07:30:02;;;;;;;;;;;19.70;40.00;;;;;;4948184;28;19993;-52
2022/12/27 07:32:28;;;;;;;;;;;19.70;39.90;;;;;;4949379;28;19976;-51
2022/12/27 07:34:53;;;;;;;;;;;19.70;40.10;;;;;;4948035;28;19914;-51
2022/12/27 07:37:19;;;;;;;;;;;19.60;40.10;;;;;;4947340;28;19922;-51
2022/12/27 07:39:45;;;;;;;;;;;19.60;40.20;;;;;;4947539;28;19930;-50
2022/12/27 07:42:10;;;;;;;;;;;19.60;40.30;;;;;;4950086;28;19919;-51
2022/12/27 07:44:36;;;;;;;;;;;19.50;40.60;;;;;;4953952;29;19914;-51
2022/12/27 07:47:01;;;;;;;;;;;19.50;40.50;;;;;;4954516;29;19968;-51
2022/12/27 07:49:27;;;;;;;;;;;19.50;40.70;;;;;;4954088;29;20766;-51
2022/12/27 07:51:52;;;;;;;;;;;19.50;40.70;;;;;;4958690;28;20276;-51
2022/12/27 07:54:18;;;;;;;;;;;19.50;40.60;;;;;;4954094;28;20358;-53
2022/12/27 07:56:43;;;;;;;;;;;19.50;40.70;;;;;;4954498;28;20293;-52
2022/12/27 07:59:09;;;;;;;;;;;19.60;40.70;;;;;;4953936;28;19918;-51
2022/12/27 08:04:19;;;;;;;;;;;19.60;40.50;;;;;;4953930;29;20124;-51
2022/12/27 08:06:44;;;;;;;;;;;19.60;40.60;;;;;;4954106;29;19934;-51
2022/12/27 08:09:10;;;;;;;;;;;19.60;40.50;;;;;;4942118;29;19960;-52
2022/12/27 08:11:36;;;;;;;;;;;19.60;40.40;;;;;;4951857;29;19915;-52
2022/12/27 08:14:01;;;;;;;;;;;19.60;40.40;;;;;;4950770;28;19914;-51
2022/12/27 08:16:26;;;;;;;;;;;19.70;40.90;;;;;;4950710;28;19927;-52
2022/12/27 08:18:52;;;;;;;;;;;19.60;40.50;;;;;;4947222;28;19922;-51
2022/12/27 08:21:17;;;;;;;;;;;19.70;40.10;;;;;;4950044;28;19919;-52
2022/12/27 08:23:43;;;;;;;;;;;19.80;40.50;;;;;;4946391;28;19921;-50
2022/12/27 08:26:08;;;;;;;;;;;19.90;40.30;;;;;;4951794;28;19923;-52
2022/12/27 08:28:34;;;;;;;;;;;20.00;40.00;;;;;;4951709;28;20313;-52
2022/12/27 08:30:59;;;;;;;;;;;19.90;40.20;;;;;;4961904;28;19914;-53
2022/12/27 08:33:24;;;;;;;;;;;19.80;40.20;;;;;;4952701;28;19918;-52
2022/12/27 08:35:50;;;;;;;;;;;20.20;40.00;;;;;;4952113;29;20009;-52
2022/12/27 08:38:15;;;;;;;;;;;20.70;38.90;;;;;;4943081;29;20310;-52
2022/12/27 08:40:41;;;;;;;;;;;21.20;38.10;;;;;;4949466;28;19915;-51
2022/12/27 08:43:07;;;;;;;;;;;21.60;37.60;;;;;;4952912;28;20009;-51
2022/12/27 08:45:32;;;;;;;;;;;21.80;37.20;;;;;;4956627;28;20354;-52
2022/12/27 08:47:58;;;;;;;;;;;22.00;36.80;;;;;;4955828;28;19922;-51
2022/12/27 08:50:23;;;;;;;;;;;22.10;36.70;;;;;;4940422;28;19950;-51
2022/12/27 08:52:49;;;;;;;;;;;22.20;36.50;;;;;;4968906;28;20476;-50
2022/12/27 08:55:14;;;;;;;;;;;22.30;36.40;;;;;;4955868;28;20289;-51
2022/12/27 08:57:40;;;;;;;;;;;22.30;36.40;;;;;;4952940;28;19923;-52
2022/12/27 09:00:07;;;;;;;;;;;22.20;36.40;;;;;;4955719;28;20041;-51
2022/12/27 09:02:32;;;;;;;;;;;22.20;36.40;;;;;;4952834;28;19966;-50
2022/12/27 09:04:58;;;;;;;;;;;22.30;36.40;;;;;;4953937;28;19988;-51
2022/12/27 09:07:23;;;;;;;;;;;22.30;36.30;;;;;;4951078;28;19918;-51
2022/12/27 09:09:49;;;;;;;;;;;22.40;36.20;;;;;;4949156;28;19929;-51
2022/12/27 09:12:14;;;;;;;;;;;22.50;36.10;;;;;;4951382;28;19968;-51
2022/12/27 09:14:39;;;;;;;;;;;22.50;35.90;;;;;;4954651;28;19925;-51
2022/12/27 09:17:07;;;;;;;;;;;22.60;35.90;;;;;;4959779;28;19962;-52
2022/12/27 09:19:33;;;;;;;;;;;22.60;35.80;;;;;;4952807;28;19922;-51
2022/12/27 09:21:58;;;;;;;;;;;22.50;35.90;;;;;;4950511;28;19910;-52
2022/12/27 09:24:24;;;;;;;;;;;22.40;36.10;;;;;;4959645;28;19929;-53
2022/12/27 09:26:49;;;;;;;;;;;22.40;36.20;;;;;;4959617;28;19918;-52
2022/12/27 09:29:15;;;;;;;;;;;22.40;36.20;;;;;;4953930;28;19963;-53
2022/12/27 09:31:40;;;;;;;;;;;22.50;36.20;;;;;;4952882;28;21982;-52
2022/12/27 09:34:05;;;;;;;;;;;22.50;36.10;;;;;;4951538;28;20398;-52
2022/12/27 09:36:31;;;;;;;;;;;22.60;36.10;;;;;;4961668;28;19918;-53
2022/12/27 09:38:56;;;;;;;;;;;22.60;36.00;;;;;;4952355;28;19919;-52
2022/12/27 09:41:48;;;;;;;;;;;22.70;35.80;;;;;;4958046;28;19918;-52
2022/12/27 09:44:17;;;;;;;;;;;22.70;35.80;;;;;;4951812;28;20498;-53
2022/12/27 09:46:53;;;;;;;;;;;22.70;35.90;;;;;;4953914;28;19997;-53
2022/12/27 09:49:22;;;;;;;;;;;22.60;36.10;;;;;;4952201;29;20366;-52
2022/12/27 09:51:49;;;;;;;;;;;22.40;36.40;;;;;;4933910;29;19922;-51
2022/12/27 09:54:18;;;;;;;;;;;22.20;36.70;;;;;;4950466;28;19998;-54
2022/12/27 09:56:43;;;;;;;;;;;22.20;37.00;;;;;;4946867;28;19974;-51
2022/12/27 09:59:22;;;;;;;;;;;22.20;37.00;;;;;;4951639;28;19918;-51
2022/12/27 10:01:48;;;;;;;;;;;22.30;36.90;;;;;;4935224;28;19949;-52
2022/12/27 10:04:13;;;;;;;;;;;22.30;36.70;;;;;;4951882;29;19918;-52
2022/12/27 10:06:43;;;;;;;;;;;22.50;36.50;;;;;;4951770;28;19919;-51
2022/12/27 10:09:30;;;;;;;;;;;22.50;36.40;;;;;;4934665;29;20048;-53
2022/12/27 10:12:14;;;;;;;;;;;22.60;36.20;;;;;;4941271;28;19915;-51
2022/12/27 10:14:42;;;;;;;;;;;22.60;36.20;;;;;;4932742;29;19922;-54
2022/12/27 10:17:14;;;;;;;;;;;22.70;36.20;;;;;;4951120;29;19991;-52
2022/12/27 10:19:41;;;;;;;;;;;22.70;36.10;;;;;;4950318;28;19918;-52
2022/12/27 10:22:34;;;;;;;;;;;22.70;36.10;;;;;;5089706;27;19916;-53
2022/12/27 10:25:00;;;;;;;;;;;22.80;36.20;;;;;;5116802;27;19917;-51
2022/12/27 10:27:26;;;;;;;;;;;22.70;36.30;;;;;;5089607;28;19919;-52
2022/12/27 10:29:52;;;;;;;;;;;22.70;36.40;;;;;;5073447;28;20377;-52
2022/12/27 10:32:17;;;;;;;;;;;22.60;36.50;;;;;;5073763;28;19908;-50
2022/12/27 10:34:43;;;;;;;;;;;22.50;36.70;;;;;;5117329;28;19920;-52
2022/12/27 10:37:17;;;;;;;;;;;22.40;36.70;;;;;;5083946;28;19908;-51
2022/12/27 10:39:43;;;;;;;;;;;22.40;36.90;;;;;;5087374;28;20003;-51
2022/12/27 10:42:12;;;;;;;;;;;22.40;36.90;;;;;;5070992;28;20011;-52
2022/12/27 10:44:38;;;;;;;;;;;22.40;36.80;;;;;;5086852;28;19912;-51
2022/12/27 10:47:03;;;;;;;;;;;22.40;36.80;;;;;;5122408;28;19954;-51
2022/12/27 10:49:29;;;;;;;;;;;22.50;36.80;;;;;;5085357;28;19913;-52
2022/12/27 10:51:58;;;;;;;;;;;22.50;36.70;;;;;;5076462;28;19914;-52
2022/12/27 10:54:27;;;;;;;;;;;22.60;36.60;;;;;;5115274;28;19913;-53
2022/12/27 10:56:52;;;;;;;;;;;22.60;36.70;;;;;;5081178;28;19913;-51
2022/12/27 10:59:18;;;;;;;;;;;22.60;36.50;;;;;;5090998;28;19911;-51
2022/12/27 11:01:44;;;;;;;;;;;22.60;36.50;;;;;;5091883;28;19928;-52
2022/12/27 11:04:22;;;;;;;;;;;22.60;37.20;;;;;;5084130;28;19916;-52
2022/12/27 11:07:02;;;;;;;;;;;22.60;36.80;;;;;;5082260;28;19912;-53
2022/12/27 11:09:28;;;;;;;;;;;22.50;37.00;;;;;;5087998;28;19912;-53
2022/12/27 11:12:12;;;;;;;;;;;22.40;37.10;;;;;;5075988;28;19919;-51
2022/12/27 11:14:38;;;;;;;;;;;22.30;37.40;;;;;;5075586;28;19916;-52
2022/12/27 11:17:08;;;;;;;;;;;22.20;37.50;;;;;;5086139;28;19921;-52
2022/12/27 11:19:33;;;;;;;;;;;22.20;37.70;;;;;;5081915;28;19919;-52
2022/12/27 11:21:59;;;;;;;;;;;22.10;37.70;;;;;;5102281;28;19927;-52
2022/12/27 11:24:25;;;;;;;;;;;21.90;37.80;;;;;;5120171;28;20007;-52
2022/12/27 11:26:57;;;;;;;;;;;21.80;38.10;;;;;;5076892;28;20040;-51
2022/12/27 11:29:26;;;;;;;;;;;21.70;38.40;;;;;;5083130;28;19919;-51
2022/12/27 11:31:52;;;;;;;;;;;21.70;38.40;;;;;;5070666;28;19913;-51
2022/12/27 11:34:21;;;;;;;;;;;21.70;38.30;;;;;;5074907;28;19997;-52
2022/12/27 11:36:47;;;;;;;;;;;21.70;38.50;;;;;;5074459;28;19974;-51
2022/12/27 11:39:31;;;;;;;;;;;21.50;38.80;;;;;;5069470;28;19919;-53
2022/12/27 11:41:56;;;;;;;;;;;21.40;39.00;;;;;;5066953;28;19931;-52
2022/12/27 11:44:30;;;;;;;;;;;21.50;38.80;;;;;;5063609;28;20011;-53
2022/12/27 11:47:06;;;;;;;;;;;21.70;38.40;;;;;;5072373;28;19920;-51
2022/12/27 11:49:33;;;;;;;;;;;22.00;37.90;;;;;;5063484;28;19912;-51
2022/12/27 11:52:06;;;;;;;;;;;22.20;37.50;;;;;;5067664;28;20399;-52
2022/12/27 11:54:45;;;;;;;;;;;22.40;37.30;;;;;;5062601;28;19966;-52
2022/12/27 11:57:14;;;;;;;;;;;22.50;37.00;;;;;;5069611;28;19919;-52
2022/12/27 11:59:48;;;;;;;;;;;22.70;36.90;;;;;;5058369;28;19920;-52
2022/12/27 12:02:17;;;;;;;;;;;22.70;36.90;;;;;;5066086;28;19916;-52
2022/12/27 12:04:48;;;;;;;;;;;22.40;37.30;;;;;;5106649;28;19908;-52
2022/12/27 12:07:19;;;;;;;;;;;22.20;37.70;;;;;;5106917;28;19913;-52
2022/12/27 12:10:03;;;;;;;;;;;22.00;38.20;;;;;;5073978;28;19958;-52
2022/12/27 12:12:29;;;;;;;;;;;21.80;38.30;;;;;;5074023;28;19939;-52
2022/12/27 12:15:13;;;;;;;;;;;21.80;38.40;;;;;;5073954;28;19917;-52
2022/12/27 12:17:45;;;;;;;;;;;21.70;38.50;;;;;;5075991;28;19912;-53
2022/12/27 12:20:29;;;;;;;;;;;21.70;38.90;;;;;;5070072;28;19925;-52
2022/12/27 12:23:04;;;;;;;;;;;21.70;38.80;;;;;;5074853;28;19920;-52
2022/12/27 12:25:36;;;;;;;;;;;21.70;38.80;;;;;;5092111;28;20388;-52
2022/12/27 12:28:01;;;;;;;;;;;21.70;38.70;;;;;;5090813;28;20667;-52
2022/12/27 12:30:38;;;;;;;;;;;21.80;38.60;;;;;;5074243;28;19923;-52
2022/12/27 12:33:06;;;;;;;;;;;21.90;38.50;;;;;;5106664;28;19916;-53
2022/12/27 12:35:34;;;;;;;;;;;22.00;38.30;;;;;;5106448;28;20372;-52
2022/12/27 12:38:01;;;;;;;;;;;21.90;38.40;;;;;;5073871;28;19920;-52
2022/12/27 12:40:33;;;;;;;;;;;21.80;38.40;;;;;;5068966;28;19923;-52
2022/12/27 12:43:17;;;;;;;;;;;21.80;38.40;;;;;;5061961;28;19915;-52
2022/12/27 12:45:54;;;;;;;;;;;21.80;38.50;;;;;;5073187;28;20023;-52
2022/12/27 12:48:26;;;;;;;;;;;21.80;38.50;;;;;;5073596;28;19989;-52
2022/12/27 12:51:07;;;;;;;;;;;21.90;38.50;;;;;;5074610;28;19913;-52
2022/12/27 12:53:32;;;;;;;;;;;21.90;38.40;;;;;;5055855;28;19947;-52
2022/12/27 12:56:04;;;;;;;;;;;21.80;38.40;;;;;;5093627;28;19958;-52
2022/12/27 12:58:50;;;;;;;;;;;21.80;38.50;;;;;;5093284;28;19908;-52
2022/12/27 13:01:21;;;;;;;;;;;21.80;38.60;;;;;;5074561;28;19927;-52
2022/12/27 13:03:51;;;;;;;;;;;21.70;38.90;;;;;;5073237;28;19909;-52
2022/12/27 13:06:35;;;;;;;;;;;21.70;38.90;;;;;;5105729;28;19908;-52
2022/12/27 13:09:02;;;;;;;;;;;21.60;38.80;;;;;;5104359;28;20437;-52
2022/12/27 13:11:31;;;;;;;;;;;21.70;38.70;;;;;;5080055;28;20367;-52
2022/12/27 13:14:13;;;;;;;;;;;21.80;38.70;;;;;;5071397;28;20448;-51
2022/12/27 13:16:58;;;;;;;;;;;21.90;38.50;;;;;;5072976;28;19934;-53
2022/12/27 13:19:42;;;;;;;;;;;22.00;38.40;;;;;;5048638;28;19913;-51
2022/12/27 13:22:14;;;;;;;;;;;21.80;38.40;;;;;;5052868;28;19925;-51
2022/12/27 13:24:48;;;;;;;;;;;21.80;38.50;;;;;;5052400;28;19913;-51
2022/12/27 13:27:40;;;;;;;;;;;21.80;38.60;;;;;;5057378;28;19927;-51
2022/12/27 13:30:13;;;;;;;;;;;21.80;38.50;;;;;;5071437;28;20008;-52
2022/12/27 13:32:57;;;;;;;;;;;22.00;38.30;;;;;;5105222;28;19953;-52
2022/12/27 13:35:28;;;;;;;;;;;22.00;38.20;;;;;;5072617;28;19915;-51
2022/12/27 13:37:54;;;;;;;;;;;22.10;38.20;;;;;;5079942;28;19912;-51
2022/12/27 13:40:22;;;;;;;;;;;22.10;38.00;;;;;;5067429;28;19920;-51
2022/12/27 13:43:04;;;;;;;;;;;22.20;37.90;;;;;;5059282;28;19908;-51
2022/12/27 13:45:30;;;;;;;;;;;22.30;37.80;;;;;;5071385;28;19918;-51
2022/12/27 13:48:03;;;;;;;;;;;22.30;37.80;;;;;;5072804;28;19917;-51
2022/12/27 13:50:41;;;;;;;;;;;22.30;37.70;;;;;;5072363;28;19913;-51
2022/12/27 13:53:23;;;;;;;;;;;22.20;37.80;;;;;;5070633;28;19916;-51
2022/12/27 13:55:59;;;;;;;;;;;22.20;38.00;;;;;;5084361;28;20339;-52
2022/12/27 13:58:25;;;;;;;;;;;22.10;38.10;;;;;;5051061;28;20631;-52
2022/12/27 14:00:56;;;;;;;;;;;22.00;38.20;;;;;;5067366;28;19952;-52
2022/12/27 14:03:39;;;;;;;;;;;22.00;38.20;;;;;;5070102;28;19913;-53
2022/12/27 14:06:10;;;;;;;;;;;22.20;38.10;;;;;;5056029;28;19935;-52
2022/12/27 14:08:54;;;;;;;;;;;22.20;38.10;;;;;;5064491;28;19916;-52
2022/12/27 14:11:25;;;;;;;;;;;22.20;38.00;;;;;;5071243;28;19919;-53
2022/12/27 14:13:51;;;;;;;;;;;22.20;37.90;;;;;;5071171;28;19913;-53
2022/12/27 14:16:22;;;;;;;;;;;22.30;38.00;;;;;;5072401;28;19919;-53
2022/12/27 14:18:50;;;;;;;;;;;22.40;38.00;;;;;;5065495;28;20033;-52
2022/12/27 14:21:23;;;;;;;;;;;22.30;38.40;;;;;;5071829;28;20012;-52
2022/12/27 14:23:58;;;;;;;;;;;22.20;38.60;;;;;;5076728;28;20395;-52
2022/12/27 14:26:43;;;;;;;;;;;22.10;38.90;;;;;;5071539;28;19919;-52
2022/12/27 14:29:08;;;;;;;;;;;22.10;39.10;;;;;;5089286;28;19919;-52
2022/12/27 14:31:52;;;;;;;;;;;22.00;39.40;;;;;;5070843;28;19912;-52
2022/12/27 14:34:30;;;;;;;;;;;22.00;39.50;;;;;;5076073;28;20426;-52
2022/12/27 14:36:56;;;;;;;;;;;22.10;39.30;;;;;;5105358;28;19916;-52
2022/12/27 14:39:30;;;;;;;;;;;22.20;39.40;;;;;;5066825;28;20315;-53
2022/12/27 14:42:14;;;;;;;;;;;22.30;39.90;;;;;;5061874;28;20368;-52
2022/12/27 14:45:08;;;;;;;;;;;22.50;39.10;;;;;;5052710;28;20014;-53
2022/12/27 14:47:54;;;;;;;;;;;22.80;38.50;;;;;;5057434;28;19926;-53
2022/12/27 14:50:43;;;;;;;;;;;23.10;38.00;;;;;;5054935;28;20284;-53
2022/12/27 14:53:11;;;;;;;;;;;23.20;37.70;;;;;;5049707;28;19915;-53
2022/12/27 14:55:56;;;;;;;;;;;23.30;37.60;;;;;;5071365;28;19921;-52
2022/12/27 14:58:28;;;;;;;;;;;23.30;37.40;;;;;;5071180;28;19939;-53
2022/12/27 15:00:57;;;;;;;;;;;23.30;37.40;;;;;;5071582;28;19949;-53
2022/12/27 15:03:37;;;;;;;;;;;23.40;37.40;;;;;;5071363;28;19920;-53
2022/12/27 15:06:03;;;;;;;;;;;23.40;37.40;;;;;;5070764;28;19912;-53
2022/12/27 15:08:41;;;;;;;;;;;23.40;37.40;;;;;;5074898;28;19920;-52
2022/12/27 15:11:16;;;;;;;;;;;23.40;37.60;;;;;;5055332;28;19958;-52
2022/12/27 15:14:00;;;;;;;;;;;23.40;37.40;;;;;;5064998;28;19931;-52
2022/12/27 15:16:34;;;;;;;;;;;23.40;37.50;;;;;;5080973;28;20042;-52
2022/12/27 15:19:05;;;;;;;;;;;23.50;37.60;;;;;;5068546;28;19961;-52
2022/12/27 15:21:40;;;;;;;;;;;23.50;37.50;;;;;;5070341;28;19943;-52
2022/12/27 15:24:09;;;;;;;;;;;23.50;37.50;;;;;;5066617;28;19927;-53
2022/12/27 15:26:35;;;;;;;;;;;23.60;37.40;;;;;;5069678;28;19950;-52
2022/12/27 15:29:18;;;;;;;;;;;23.60;37.40;;;;;;5069245;28;19978;-51
2022/12/27 15:32:10;;;;;;;;;;;23.60;37.40;;;;;;5064752;28;19912;-51
2022/12/27 15:34:53;;;;;;;;;;;23.60;37.40;;;;;;5043466;28;20019;-54
2022/12/27 15:37:37;;;;;;;;;;;23.60;37.40;;;;;;5054997;28;19913;-52
2022/12/27 15:40:12;;;;;;;;;;;23.70;37.30;;;;;;5071603;28;19993;-52
2022/12/27 15:42:42;;;;;;;;;;;23.60;37.20;;;;;;5079316;28;19970;-52
2022/12/27 15:45:20;;;;;;;;;;;23.70;37.30;;;;;;5072464;28;19912;-52
2022/12/27 15:47:57;;;;;;;;;;;23.70;37.10;;;;;;5062778;28;20304;-52
2022/12/27 15:50:23;;;;;;;;;;;23.70;37.20;;;;;;5056283;28;19917;-53
2022/12/27 15:52:52;;;;;;;;;;;23.70;37.20;;;;;;5069097;28;20283;-53
2022/12/27 15:55:33;;;;;;;;;;;23.70;37.00;;;;;;5074801;28;19944;-53
2022/12/27 15:58:12;;;;;;;;;;;23.60;37.10;;;;;;5074236;28;19912;-51
2022/12/27 16:00:37;;;;;;;;;;;23.60;37.40;;;;;;5055228;28;19913;-52
2022/12/27 16:03:32;;;;;;;;;;;23.50;37.40;;;;;;5061033;28;20352;-53
2022/12/27 16:05:58;;;;;;;;;;;23.40;37.70;;;;;;5056131;28;19913;-51
2022/12/27 16:08:25;;;;;;;;;;;23.40;37.50;;;;;;5059508;28;19952;-52
2022/12/27 16:10:50;;;;;;;;;;;23.50;37.50;;;;;;5074507;28;19917;-52